Huff, Kentucky
Current Conditions -  °F | °C
As of 9:53 AM on Friday 19 Dec 2014 (Local Time) from KBWG Reporting Station
Haze Haze  
Wind Chill: -1°   Ceiling: 4200
Heat Index:   Visibility: 6mi
Dew Point: -3°   Wind: 5mph
Humidity: 72%   Direction: 80°E
Pressure: 30.31"   Gusts: NA
Location:  37.2379°N, 86.3446°W
Report Text: KBWG 191553Z AUTO 08004KT 6SM HZ FEW018 OVC042 02/M03 A3031 RMK AO2 SLP267 T00171028
Loading
Personal Weather Stations






























Interactive Weather Map New forecast layout! Learn more

10-Day Weather Forecast

Advertisements
Track Severe Weather on mobile